Time;durP1;ratioP1;P1;durP2;ratioP2;P2;SDS_P1;SDS_P2;PMS_P1;PMS_P2;Temp;Humidity;BMP_temperature;BMP_pressure;BME280_temperature;BME280_humidity;BME280_pressure;Samples;Min_cycle;Max_cycle;Signal;HPM_P1;HPM_P2
2022/11/12 00:00:14;;;;;;;13.40;11.97;;;7.70;1.00;;;;;;6288800;28;20611;-55
2022/11/12 00:03:17;;;;;;;13.97;12.27;;;7.50;1.00;;;;;;6285837;28;20240;-53
2022/11/12 00:06:21;;;;;;;13.13;11.83;;;7.80;1.00;;;;;;6284696;28;20730;-54
2022/11/12 00:09:27;;;;;;;13.07;11.83;;;7.60;1.00;;;;;;6303570;28;20243;-54
2022/11/12 00:12:37;;;;;;;12.03;10.83;;;7.30;1.00;;;;;;6303439;28;20721;-53
2022/11/12 00:15:40;;;;;;;11.67;10.30;;;7.60;1.00;;;;;;6301698;28;20233;-53
2022/11/12 00:18:43;;;;;;;11.97;10.63;;;7.30;1.00;;;;;;6285075;28;20237;-54
2022/11/12 00:21:46;;;;;;;11.53;10.33;;;7.50;1.00;;;;;;6284531;28;21413;-55
2022/11/12 00:24:50;;;;;;;11.03;10.00;;;7.50;1.00;;;;;;6283943;28;20249;-54
2022/11/12 00:27:53;;;;;;;10.40;9.40;;;7.70;1.00;;;;;;6284276;28;20237;-53
2022/11/12 00:31:10;;;;;;;10.80;9.80;;;7.50;1.00;;;;;;6284571;28;20648;-54
2022/11/12 00:34:13;;;;;;;10.13;9.23;;;7.60;1.00;;;;;;6283404;28;20241;-54
2022/11/12 00:37:17;;;;;;;9.67;8.80;;;7.40;1.00;;;;;;6289997;28;20271;-54
2022/11/12 00:40:21;;;;;;;9.67;8.63;;;7.80;1.00;;;;;;6292524;28;20240;-54
2022/11/12 00:43:24;;;;;;;9.30;8.47;;;7.50;1.00;;;;;;6293931;28;20745;-55
2022/11/12 00:46:27;;;;;;;9.03;8.20;;;7.70;1.00;;;;;;6283941;28;20241;-54
2022/11/12 00:49:33;;;;;;;8.57;7.97;;;7.40;1.00;;;;;;6282943;28;20738;-56
2022/11/12 00:52:36;;;;;;;8.47;7.87;;;7.50;1.00;;;;;;6283592;28;20233;-54
2022/11/12 00:55:40;;;;;;;8.23;7.53;;;7.30;1.00;;;;;;6287670;28;20721;-53
2022/11/12 00:58:43;;;;;;;7.73;7.03;;;7.40;1.00;;;;;;6308464;28;20275;-54
2022/11/12 01:01:47;;;;;;;8.27;7.50;;;7.70;1.00;;;;;;6301327;28;20237;-54
2022/11/12 01:04:50;;;;;;;7.73;7.23;;;7.60;1.00;;;;;;6284016;28;20245;-56
2022/11/12 01:07:53;;;;;;;7.90;7.30;;;7.70;1.00;;;;;;6294451;28;20245;-55
2022/11/12 01:11:05;;;;;;;8.33;7.60;;;7.60;1.00;;;;;;6299273;28;20609;-53
2022/11/12 01:14:09;;;;;;;8.53;7.93;;;7.30;1.00;;;;;;6292151;28;20255;-54
2022/11/12 01:17:12;;;;;;;8.27;7.53;;;7.40;1.00;;;;;;6307912;28;20736;-54
2022/11/12 01:20:18;;;;;;;7.40;6.70;;;7.10;1.00;;;;;;6308638;28;20920;-54
2022/11/12 01:23:21;;;;;;;7.63;7.10;;;7.10;1.00;;;;;;6310406;28;20237;-54
2022/11/12 01:26:27;;;;;;;7.33;6.60;;;7.20;1.00;;;;;;6302005;28;20312;-54
2022/11/12 01:29:30;;;;;;;7.23;6.83;;;7.40;1.00;;;;;;6300342;28;20423;-54
2022/11/12 01:32:36;;;;;;;8.10;7.50;;;7.40;1.00;;;;;;6300755;28;20264;-56
2022/11/12 01:35:39;;;;;;;8.40;7.13;;;7.30;1.00;;;;;;6282380;28;20253;-54
2022/11/12 01:38:43;;;;;;;7.57;7.00;;;7.20;1.00;;;;;;6298531;28;20236;-55
2022/11/12 01:41:47;;;;;;;7.17;6.67;;;7.40;1.00;;;;;;6299531;28;20233;-54
2022/11/12 01:44:52;;;;;;;7.13;6.57;;;7.20;1.00;;;;;;6283024;28;20232;-54
2022/11/12 01:47:56;;;;;;;7.37;6.73;;;7.30;1.00;;;;;;6273188;28;20233;-54
2022/11/12 01:51:00;;;;;;;7.17;6.53;;;7.10;1.00;;;;;;6283375;28;20817;-54
2022/11/12 01:54:07;;;;;;;7.10;6.50;;;7.20;1.00;;;;;;6294533;28;20251;-52
2022/11/12 01:57:14;;;;;;;7.10;6.47;;;7.20;1.00;;;;;;6304488;28;20240;-54
2022/11/12 02:00:17;;;;;;;7.47;6.87;;;7.10;1.00;;;;;;6282787;28;20244;-54
2022/11/12 02:03:24;;;;;;;6.77;6.47;;;7.00;1.00;;;;;;6281844;28;20256;-54
2022/11/12 02:06:27;;;;;;;7.30;6.77;;;7.40;1.00;;;;;;6281541;28;20618;-57
2022/11/12 02:09:31;;;;;;;7.50;6.90;;;7.10;1.00;;;;;;6297129;28;20771;-54
2022/11/12 02:15:58;;;;;;;7.10;6.50;;;6.90;1.00;;;;;;6307559;28;20229;-53
2022/11/12 02:19:10;;;;;;;7.60;6.83;;;7.00;1.00;;;;;;6300993;28;20631;-54
2022/11/12 02:22:15;;;;;;;6.70;6.10;;;7.20;1.00;;;;;;6281527;28;20442;-54
2022/11/12 02:25:22;;;;;;;6.87;6.47;;;7.00;1.00;;;;;;6281370;28;20240;-54
2022/11/12 02:28:25;;;;;;;6.90;6.40;;;7.00;1.00;;;;;;6282044;28;20225;-53
2022/11/12 02:31:28;;;;;;;6.47;6.07;;;7.30;1.00;;;;;;6273646;28;20367;-54
2022/11/12 02:34:31;;;;;;;7.70;7.00;;;7.00;1.00;;;;;;6282109;28;20233;-54
2022/11/12 02:37:36;;;;;;;6.93;6.37;;;7.10;1.00;;;;;;6285948;28;20755;-54
2022/11/12 02:40:39;;;;;;;6.17;5.73;;;7.10;1.00;;;;;;6293112;28;20244;-57
2022/11/12 02:43:42;;;;;;;5.73;5.47;;;7.10;1.00;;;;;;6288242;28;20244;-55
2022/11/12 02:46:45;;;;;;;6.73;6.23;;;7.10;1.00;;;;;;6290188;28;20843;-54
2022/11/12 02:49:48;;;;;;;5.80;5.47;;;7.60;1.00;;;;;;6306718;28;20248;-54
2022/11/12 02:52:54;;;;;;;5.80;5.50;;;7.30;1.00;;;;;;6305382;28;20251;-53
2022/11/12 02:55:57;;;;;;;5.50;5.27;;;7.30;1.00;;;;;;6304123;28;20744;-53
2022/11/12 02:59:00;;;;;;;5.93;5.57;;;7.40;1.00;;;;;;6305245;28;20257;-54
2022/11/12 03:02:03;;;;;;;5.83;5.40;;;7.50;1.00;;;;;;6307227;28;20406;-55
2022/11/12 03:05:08;;;;;;;5.00;4.80;;;7.50;1.00;;;;;;6298649;28;20241;-54
2022/11/12 03:08:13;;;;;;;5.20;4.90;;;7.40;1.00;;;;;;6293321;28;20439;-54
2022/11/12 03:11:17;;;;;;;5.73;5.30;;;7.50;1.00;;;;;;6291045;28;20229;-53
2022/11/12 03:14:20;;;;;;;5.73;5.27;;;7.50;1.00;;;;;;6302500;28;20630;-54
2022/11/12 03:17:23;;;;;;;6.23;5.63;;;7.60;1.00;;;;;;6281405;28;20638;-54
2022/11/12 03:20:26;;;;;;;5.73;5.43;;;7.40;1.00;;;;;;6281153;28;20784;-53
2022/11/12 03:23:31;;;;;;;5.70;5.40;;;7.40;1.00;;;;;;6280703;28;20264;-54
2022/11/12 03:26:34;;;;;;;5.43;5.20;;;7.40;1.00;;;;;;6297192;28;20255;-55
2022/11/12 03:29:38;;;;;;;6.10;5.60;;;7.20;1.00;;;;;;6285663;28;20236;-54
2022/11/12 03:32:41;;;;;;;5.23;5.00;;;7.20;1.00;;;;;;6281117;28;20240;-55
2022/11/12 03:35:44;;;;;;;6.10;5.70;;;7.30;1.00;;;;;;6282828;28;20232;-55
2022/11/12 03:38:55;;;;;;;5.77;5.37;;;7.10;1.00;;;;;;6301154;28;20722;-53
2022/11/12 03:42:00;;;;;;;5.20;5.00;;;7.10;1.00;;;;;;6294091;28;20248;-55
2022/11/12 03:45:04;;;;;;;5.90;5.50;;;7.10;1.00;;;;;;6284360;28;20248;-54
2022/11/12 03:48:07;;;;;;;5.87;5.47;;;7.40;1.00;;;;;;6285172;28;20316;-53
2022/11/12 03:51:11;;;;;;;5.17;4.97;;;7.30;1.00;;;;;;6285107;28;20244;-54
2022/11/12 03:54:22;;;;;;;5.70;5.40;;;7.20;1.00;;;;;;6284601;28;20256;-55
2022/11/12 03:57:25;;;;;;;6.03;5.60;;;7.00;1.00;;;;;;6286844;28;20233;-54
2022/11/12 04:00:29;;;;;;;6.50;6.10;;;6.90;1.00;;;;;;6291929;27;20609;-54
2022/11/12 04:03:32;;;;;;;6.27;5.87;;;6.80;1.00;;;;;;6285748;28;20233;-53
2022/11/12 04:09:57;;;;;;;6.17;5.77;;;6.80;1.00;;;;;;6301452;28;20245;-54
2022/11/12 04:23:05;;;;;;;6.00;5.70;;;6.80;1.00;;;;;;6283031;28;20261;-61
2022/11/12 04:26:23;;;;;;;6.30;5.90;;;6.80;1.00;;;;;;6285340;28;20718;-54
2022/11/12 04:32:50;;;;;;;6.07;5.77;;;6.80;1.00;;;;;;6278705;28;20601;-54
2022/11/12 04:35:54;;;;;;;6.17;5.87;;;6.90;1.00;;;;;;6284722;28;20535;-54
2022/11/12 04:38:58;;;;;;;6.73;6.33;;;6.60;1.00;;;;;;6284359;28;20379;-54
2022/11/12 04:45:26;;;;;;;6.90;6.40;;;6.60;1.00;;;;;;6297871;28;20824;-54
2022/11/12 04:48:30;;;;;;;6.70;6.30;;;6.60;1.00;;;;;;6290269;28;20240;-55
2022/11/12 04:54:53;;;;;;;5.67;5.30;;;6.30;1.00;;;;;;6283786;28;20252;-54
2022/11/12 04:57:58;;;;;;;5.80;5.40;;;6.70;1.00;;;;;;6283296;28;20391;-53
2022/11/12 05:01:02;;;;;;;5.90;5.60;;;6.40;1.00;;;;;;6303304;28;20244;-54
2022/11/12 05:04:07;;;;;;;5.83;5.37;;;6.30;1.00;;;;;;6288780;28;20846;-55
2022/11/12 05:07:10;;;;;;;5.60;5.20;;;6.40;1.00;;;;;;6288676;28;20749;-54
2022/11/12 05:10:13;;;;;;;6.27;5.80;;;6.30;1.00;;;;;;6295677;28;20601;-53
2022/11/12 05:13:18;;;;;;;6.60;6.10;;;6.20;1.00;;;;;;6296157;28;20633;-54
2022/11/12 05:16:21;;;;;;;6.27;5.90;;;6.30;1.00;;;;;;6298698;28;20352;-53
2022/11/12 05:19:24;;;;;;;5.60;5.30;;;6.50;1.00;;;;;;6284219;28;20313;-53
2022/11/12 05:22:27;;;;;;;6.63;5.87;;;6.50;1.00;;;;;;6293048;28;20244;-53
2022/11/12 05:25:49;;;;;;;5.97;5.63;;;6.20;1.00;;;;;;6304073;28;20236;-54
2022/11/12 05:28:54;;;;;;;6.63;6.20;;;6.30;1.00;;;;;;6296775;28;20233;-60
2022/11/12 05:31:57;;;;;;;5.97;5.57;;;6.30;1.00;;;;;;6290441;28;20255;-54
2022/11/12 05:35:00;;;;;;;5.97;5.67;;;6.30;1.00;;;;;;6292307;28;20615;-54
2022/11/12 05:38:06;;;;;;;7.43;6.83;;;6.20;1.00;;;;;;6299486;28;20729;-54
2022/11/12 05:41:09;;;;;;;7.23;6.63;;;6.20;1.00;;;;;;6291299;28;20411;-54
2022/11/12 05:44:13;;;;;;;7.63;7.07;;;6.00;1.00;;;;;;6299926;28;20249;-54
2022/11/12 05:47:16;;;;;;;7.43;6.93;;;6.00;1.00;;;;;;6301135;28;20240;-54
2022/11/12 05:50:19;;;;;;;7.50;7.00;;;6.10;1.00;;;;;;6300458;28;20256;-53
2022/11/12 05:53:26;;;;;;;7.73;7.23;;;6.00;1.00;;;;;;6296867;28;20276;-54
2022/11/12 05:56:29;;;;;;;6.90;6.50;;;5.90;1.00;;;;;;6295493;28;20233;-55
2022/11/12 05:59:49;;;;;;;7.90;7.30;;;6.00;1.00;;;;;;6300266;28;20344;-54
2022/11/12 06:02:56;;;;;;;7.30;6.80;;;5.90;1.00;;;;;;6298162;28;20238;-53
2022/11/12 06:06:00;;;;;;;6.77;6.27;;;5.90;1.00;;;;;;6287392;28;20232;-54
2022/11/12 06:09:03;;;;;;;7.30;6.80;;;6.30;1.00;;;;;;6295726;28;20258;-54
2022/11/12 06:12:07;;;;;;;6.87;6.47;;;6.10;1.00;;;;;;6297580;28;20237;-54
2022/11/12 06:15:12;;;;;;;7.17;6.77;;;5.80;1.00;;;;;;6299920;28;20241;-54
2022/11/12 06:18:15;;;;;;;7.73;7.13;;;6.10;1.00;;;;;;6285854;28;20809;-54
2022/11/12 06:21:21;;;;;;;7.57;7.03;;;6.00;1.00;;;;;;6296734;28;20244;-54
2022/11/12 06:24:24;;;;;;;9.33;8.53;;;6.10;1.00;;;;;;6294514;28;20396;-53
2022/11/12 06:27:32;;;;;;;8.37;7.70;;;6.00;1.00;;;;;;6289342;28;20263;-54
2022/11/12 06:30:36;;;;;;;8.30;7.70;;;6.10;1.00;;;;;;6292643;28;20541;-54
2022/11/12 06:33:39;;;;;;;8.10;7.40;;;6.10;1.00;;;;;;6293492;28;20233;-55
2022/11/12 06:36:42;;;;;;;7.87;7.10;;;6.00;1.00;;;;;;6296137;28;20233;-54
2022/11/12 06:39:45;;;;;;;7.57;7.00;;;6.10;1.00;;;;;;6298454;28;20372;-54
2022/11/12 06:42:55;;;;;;;7.03;6.63;;;6.20;1.00;;;;;;6298686;28;20631;-55
2022/11/12 06:46:01;;;;;;;6.80;6.30;;;6.00;1.00;;;;;;6287773;28;20232;-54
2022/11/12 06:49:04;;;;;;;7.07;6.47;;;5.90;1.00;;;;;;6295977;28;20252;-54
2022/11/12 06:52:12;;;;;;;7.53;7.03;;;6.00;1.00;;;;;;6300633;28;20233;-54
2022/11/12 06:55:18;;;;;;;7.20;6.70;;;6.00;1.00;;;;;;6294693;28;20238;-54
2022/11/12 06:58:21;;;;;;;7.37;6.90;;;6.10;1.00;;;;;;6296985;28;20242;-53
2022/11/12 07:01:26;;;;;;;8.03;7.33;;;6.10;1.00;;;;;;6295133;28;20228;-54
2022/11/12 07:04:29;;;;;;;7.63;7.03;;;6.40;1.00;;;;;;6294102;28;20241;-57
2022/11/12 07:07:32;;;;;;;8.03;7.27;;;6.20;1.00;;;;;;6293154;28;20239;-54
2022/11/12 07:10:35;;;;;;;7.80;7.30;;;6.10;1.00;;;;;;6302188;28;20240;-54
2022/11/12 07:13:38;;;;;;;7.93;7.33;;;6.40;1.00;;;;;;6305807;28;20251;-54
2022/11/12 07:16:43;;;;;;;8.13;7.37;;;6.30;1.00;;;;;;6293161;28;20237;-54
2022/11/12 07:19:46;;;;;;;8.93;8.13;;;6.40;1.00;;;;;;6301059;28;20240;-54
2022/11/12 07:22:49;;;;;;;8.97;8.10;;;6.50;1.00;;;;;;6294641;28;20244;-54
2022/11/12 07:25:56;;;;;;;10.03;9.10;;;6.50;1.00;;;;;;6280348;28;20233;-53
2022/11/12 07:28:59;;;;;;;8.90;8.20;;;6.80;1.00;;;;;;6302989;28;20783;-53
2022/11/12 07:32:04;;;;;;;9.20;8.23;;;6.70;1.00;;;;;;6302099;28;20388;-55
2022/11/12 07:35:08;;;;;;;9.70;8.90;;;6.80;1.00;;;;;;6297506;28;20247;-53
2022/11/12 07:38:12;;;;;;;9.03;8.33;;;7.20;1.00;;;;;;6299937;28;20240;-55
2022/11/12 07:41:17;;;;;;;9.23;8.53;;;6.70;1.00;;;;;;6299009;28;20252;-54
2022/11/12 07:44:20;;;;;;;8.53;7.93;;;7.20;1.00;;;;;;6289016;28;20248;-55
2022/11/12 07:47:25;;;;;;;9.47;8.77;;;7.20;1.00;;;;;;6293469;28;20338;-55
2022/11/12 07:50:28;;;;;;;9.10;8.30;;;7.20;1.00;;;;;;6294804;28;20229;-54
2022/11/12 07:53:32;;;;;;;8.00;7.40;;;7.50;1.00;;;;;;6291070;28;20310;-54
2022/11/12 07:56:35;;;;;;;8.70;8.00;;;7.50;1.00;;;;;;6288908;28;20720;-54
2022/11/12 07:59:42;;;;;;;8.33;7.73;;;7.50;1.00;;;;;;6308080;28;20630;-54
2022/11/12 08:02:49;;;;;;;7.73;7.13;;;7.80;1.00;;;;;;6288434;28;20336;-54
2022/11/12 08:05:53;;;;;;;10.17;9.17;;;7.70;1.00;;;;;;6287025;28;20648;-57
2022/11/12 08:08:57;;;;;;;9.97;9.00;;;7.90;1.00;;;;;;6292457;28;20233;-54
2022/11/12 08:12:00;;;;;;;9.53;8.73;;;7.80;1.00;;;;;;6298988;28;20251;-55
2022/11/12 08:15:04;;;;;;;9.33;7.63;;;7.80;1.00;;;;;;6300223;28;20240;-54
2022/11/12 08:18:08;;;;;;;10.20;9.13;;;8.20;1.00;;;;;;6292009;28;20236;-53
2022/11/12 08:21:13;;;;;;;12.53;9.23;;;8.00;1.00;;;;;;6306963;28;20240;-55
2022/11/12 08:24:16;;;;;;;10.10;9.10;;;8.20;1.00;;;;;;6292006;28;20753;-54
2022/11/12 08:27:19;;;;;;;9.60;8.70;;;8.30;1.00;;;;;;6300549;28;20236;-54
2022/11/12 08:30:22;;;;;;;11.23;10.23;;;8.50;1.00;;;;;;6303534;28;20245;-53
2022/11/12 08:33:26;;;;;;;11.07;9.33;;;8.60;1.00;;;;;;6305451;28;20252;-54
2022/11/12 08:36:29;;;;;;;9.83;8.83;;;8.70;1.00;;;;;;6294534;28;20238;-54
2022/11/12 08:39:32;;;;;;;8.83;8.10;;;8.90;1.00;;;;;;6306736;27;20259;-54
2022/11/12 08:42:35;;;;;;;11.27;9.37;;;9.00;1.00;;;;;;6296443;28;20240;-55
2022/11/12 08:45:40;;;;;;;11.03;9.97;;;9.10;1.00;;;;;;6301060;28;20527;-54
2022/11/12 08:48:44;;;;;;;10.63;9.77;;;9.30;1.00;;;;;;6285469;28;20725;-58
2022/11/12 08:51:47;;;;;;;10.00;8.63;;;9.40;1.00;;;;;;6298130;28;20718;-54
2022/11/12 08:54:50;;;;;;;10.67;9.53;;;9.50;1.00;;;;;;6288999;28;20608;-55
2022/11/12 08:57:53;;;;;;;9.47;8.67;;;9.50;1.00;;;;;;6298648;28;20251;-55
2022/11/12 09:00:57;;;;;;;10.10;9.13;;;9.70;1.00;;;;;;6295666;28;20259;-55
2022/11/12 09:04:01;;;;;;;10.03;9.00;;;9.80;1.00;;;;;;6297186;28;20237;-54
2022/11/12 09:07:04;;;;;;;9.97;9.07;;;10.00;1.00;;;;;;6289209;28;20332;-53
2022/11/12 09:10:15;;;;;;;13.27;10.27;;;10.10;1.00;;;;;;6289301;28;20264;-54
2022/11/12 09:13:18;;;;;;;11.83;9.23;;;10.30;1.00;;;;;;6287708;28;20252;-53
2022/11/12 09:16:22;;;;;;;10.20;9.20;;;10.50;1.00;;;;;;6293860;28;20749;-53
2022/11/12 09:19:27;;;;;;;12.27;10.43;;;10.60;1.00;;;;;;6289880;28;20290;-53
2022/11/12 09:22:32;;;;;;;14.13;9.93;;;10.80;1.00;;;;;;6307662;28;20836;-53
2022/11/12 09:25:35;;;;;;;13.73;10.40;;;11.00;1.00;;;;;;6299337;28;20229;-53
2022/11/12 09:28:38;;;;;;;12.67;11.37;;;11.20;1.00;;;;;;6292440;28;20489;-54
2022/11/12 09:31:42;;;;;;;12.53;11.23;;;11.30;1.00;;;;;;6290899;28;20254;-55
2022/11/12 09:34:46;;;;;;;13.13;11.20;;;11.30;1.00;;;;;;6295096;28;20241;-54
2022/11/12 09:37:49;;;;;;;15.63;11.17;;;11.50;1.00;;;;;;6288820;28;20469;-56
2022/11/12 09:41:19;;;;;;;13.57;11.30;;;11.60;1.00;;;;;;6295065;28;20233;-54
2022/11/12 09:44:23;;;;;;;13.40;11.57;;;11.80;1.00;;;;;;6292964;28;20617;-54
2022/11/12 09:47:29;;;;;;;14.23;11.03;;;12.00;1.00;;;;;;6283800;28;20605;-54
2022/11/12 09:50:41;;;;;;;12.47;11.17;;;12.10;1.00;;;;;;6295090;28;20467;-54
2022/11/12 09:53:49;;;;;;;11.30;10.20;;;12.30;1.00;;;;;;6287577;28;20634;-54
2022/11/12 09:56:53;;;;;;;17.57;10.83;;;12.50;1.00;;;;;;6293136;28;20237;-54
2022/11/12 09:59:57;;;;;;;14.17;10.53;;;12.70;1.00;;;;;;6303897;28;20563;-54
2022/11/12 10:03:07;;;;;;;11.07;9.30;;;12.70;1.00;;;;;;6300566;28;20252;-54
2022/11/12 10:06:16;;;;;;;7.77;7.10;;;12.80;1.00;;;;;;6300931;28;20245;-53
2022/11/12 10:09:27;;;;;;;13.53;10.83;;;12.90;1.00;;;;;;6292968;28;20327;-54
2022/11/12 10:12:43;;;;;;;13.77;10.23;;;12.90;1.00;;;;;;6293289;28;20244;-55
2022/11/12 10:19:44;;;;;;;12.70;8.33;;;12.90;1.00;;;;;;6282306;28;20237;-53
2022/11/12 10:23:03;;;;;;;12.40;9.70;;;12.80;1.00;;;;;;6290761;28;20249;-55
2022/11/12 10:26:15;;;;;;;10.20;8.73;;;12.90;1.00;;;;;;6298455;28;20602;-55
2022/11/12 10:29:28;;;;;;;11.73;9.10;;;12.90;1.00;;;;;;6286076;28;20275;-55
2022/11/12 10:32:31;;;;;;;16.17;13.30;;;12.90;1.00;;;;;;6295097;28;20234;-54
2022/11/12 10:35:36;;;;;;;16.73;12.27;;;12.90;1.00;;;;;;6293090;28;20239;-55
2022/11/12 10:38:43;;;;;;;13.03;11.73;;;13.00;1.00;;;;;;6287345;28;20577;-55
2022/11/12 10:42:03;;;;;;;12.93;11.40;;;13.10;1.00;;;;;;6298327;28;20623;-55
2022/11/12 10:45:20;;;;;;;11.43;9.97;;;13.20;1.00;;;;;;6303654;27;20237;-54
2022/11/12 10:48:32;;;;;;;10.03;9.03;;;13.40;1.00;;;;;;6302936;27;20243;-53
2022/11/12 10:51:37;;;;;;;10.30;8.33;;;13.50;1.00;;;;;;6305867;28;22931;-55
2022/11/12 10:54:41;;;;;;;8.07;7.30;;;13.60;1.00;;;;;;6289737;28;20257;-55
2022/11/12 10:57:44;;;;;;;10.30;7.53;;;13.70;1.00;;;;;;6302147;27;20241;-55
2022/11/12 11:00:54;;;;;;;11.70;8.20;;;13.80;1.00;;;;;;6301468;27;20246;-55
2022/11/12 11:03:58;;;;;;;9.53;8.57;;;14.00;1.00;;;;;;6309517;27;20227;-54
2022/11/12 11:07:04;;;;;;;11.23;8.60;;;14.00;1.00;;;;;;6306414;28;20247;-55
2022/11/12 11:10:25;;;;;;;11.03;7.67;;;14.00;1.00;;;;;;6309873;27;20248;-55
2022/11/12 11:13:28;;;;;;;8.70;7.87;;;14.10;1.00;;;;;;6300772;27;20233;-55
2022/11/12 11:16:34;;;;;;;8.60;7.73;;;14.20;1.00;;;;;;6299636;28;20240;-55
2022/11/12 11:19:39;;;;;;;8.97;8.17;;;14.30;1.00;;;;;;6296060;27;20667;-54
2022/11/12 11:22:47;;;;;;;9.10;8.30;;;14.40;1.00;;;;;;6305306;27;20729;-56
2022/11/12 11:25:57;;;;;;;9.80;8.07;;;14.50;1.00;;;;;;6302533;27;20238;-55
2022/11/12 11:29:14;;;;;;;9.63;7.73;;;14.50;1.00;;;;;;6299180;27;20601;-53
2022/11/12 11:32:31;;;;;;;11.73;8.80;;;14.50;1.00;;;;;;6293268;27;20251;-55
2022/11/12 11:35:52;;;;;;;13.40;8.93;;;14.30;1.00;;;;;;6297079;27;20272;-55
2022/11/12 11:39:02;;;;;;;11.70;8.30;;;14.20;1.00;;;;;;6291331;28;20244;-53
2022/11/12 11:42:45;;;;;;;11.87;8.33;;;14.20;1.00;;;;;;6295951;27;20476;-55
2022/11/12 11:46:02;;;;;;;11.00;8.50;;;14.20;1.00;;;;;;6295148;27;20232;-53
2022/11/12 11:49:19;;;;;;;8.93;8.03;;;14.10;1.00;;;;;;6297942;27;20233;-54
2022/11/12 11:52:48;;;;;;;9.03;8.10;;;14.00;1.00;;;;;;6296726;27;20244;-55
2022/11/12 11:55:56;;;;;;;9.70;8.03;;;14.20;1.00;;;;;;6297588;27;20613;-55
2022/11/12 11:59:15;;;;;;;10.17;8.33;;;14.30;1.00;;;;;;6296242;28;20456;-55
2022/11/12 12:02:39;;;;;;;10.87;8.47;;;14.50;1.00;;;;;;6294182;28;20232;-55
2022/11/12 12:05:48;;;;;;;9.10;8.27;;;14.50;1.00;;;;;;6299614;28;20232;-55
2022/11/12 12:09:03;;;;;;;13.40;9.43;;;14.70;1.00;;;;;;6302207;28;20248;-53
2022/11/12 12:12:16;;;;;;;10.53;8.83;;;14.70;1.00;;;;;;6300460;28;20237;-53
2022/11/12 12:15:48;;;;;;;8.90;8.00;;;14.60;1.00;;;;;;6287943;28;20237;-54
2022/11/12 12:18:57;;;;;;;9.80;7.80;;;14.70;1.00;;;;;;6291378;28;20241;-55
2022/11/12 12:22:09;;;;;;;9.70;8.30;;;14.70;1.00;;;;;;6299863;28;20482;-55
2022/11/12 12:25:16;;;;;;;10.03;8.93;;;14.80;1.00;;;;;;6299636;28;20443;-55
2022/11/12 12:28:29;;;;;;;10.17;9.17;;;14.90;1.00;;;;;;6296205;28;20225;-55
2022/11/12 12:31:40;;;;;;;11.57;8.37;;;14.70;1.00;;;;;;6299383;28;20236;-55
2022/11/12 12:34:48;;;;;;;11.63;8.40;;;14.70;1.00;;;;;;6296731;28;20338;-54
2022/11/12 12:38:02;;;;;;;9.20;7.90;;;14.70;1.00;;;;;;6284471;28;20241;-54
2022/11/12 12:41:16;;;;;;;9.80;8.20;;;14.70;1.00;;;;;;6294790;28;20229;-55
2022/11/12 12:44:58;;;;;;;11.43;8.70;;;14.70;1.00;;;;;;6296958;28;20256;-55
2022/11/12 12:47:55;;;;;;;9.60;8.73;;;14.70;1.00;;;;;;6284533;28;20241;-53
2022/11/12 12:50:58;;;;;;;8.50;7.60;;;14.70;1.00;;;;;;6295063;28;20316;-54
2022/11/12 12:54:01;;;;;;;13.33;8.13;;;14.80;1.00;;;;;;6293105;28;20245;-54
2022/11/12 12:57:04;;;;;;;10.80;9.67;;;14.70;1.00;;;;;;6284994;28;20249;-54
2022/11/12 13:00:37;;;;;;;14.40;9.67;;;14.60;1.00;;;;;;6289080;28;20232;-55
2022/11/12 13:03:52;;;;;;;10.90;7.67;;;14.60;1.00;;;;;;6296803;28;20702;-56
2022/11/12 13:06:56;;;;;;;9.37;8.47;;;14.70;1.00;;;;;;6302485;28;20230;-55
2022/11/12 13:10:32;;;;;;;10.60;7.10;;;14.70;1.00;;;;;;6291493;28;20435;-58
2022/11/12 13:13:37;;;;;;;8.10;7.17;;;14.70;1.00;;;;;;6283671;28;20225;-54
2022/11/12 13:16:58;;;;;;;7.87;6.97;;;14.70;1.00;;;;;;6296779;28;20772;-55
2022/11/12 13:20:35;;;;;;;10.90;8.50;;;14.80;1.00;;;;;;6289883;28;20236;-54
2022/11/12 13:24:07;;;;;;;10.37;8.60;;;14.80;1.00;;;;;;6220802;28;20243;-54
2022/11/12 13:27:10;;;;;;;8.83;7.10;;;14.70;1.00;;;;;;6285544;28;20233;-54
2022/11/12 13:31:01;;;;;;;8.00;7.30;;;14.70;1.00;;;;;;6289172;28;20245;-56
2022/11/12 13:34:13;;;;;;;8.40;7.43;;;14.70;1.00;;;;;;6289194;28;20232;-54
2022/11/12 13:37:23;;;;;;;10.37;8.33;;;14.70;1.00;;;;;;6287722;28;20256;-55
2022/11/12 13:40:52;;;;;;;11.87;7.83;;;14.60;1.00;;;;;;6290918;28;20229;-55
2022/11/12 13:43:57;;;;;;;9.93;8.60;;;14.50;1.00;;;;;;6290186;28;20251;-55
2022/11/12 13:47:00;;;;;;;8.93;8.03;;;14.50;1.00;;;;;;6291444;28;20248;-54
2022/11/12 13:50:08;;;;;;;9.13;7.60;;;14.40;1.00;;;;;;6285659;28;20232;-55
2022/11/12 13:53:20;;;;;;;10.67;8.23;;;14.30;1.00;;;;;;6291243;28;20237;-55
2022/11/12 13:56:28;;;;;;;13.03;8.17;;;14.20;1.00;;;;;;6284696;28;20240;-54
2022/11/12 13:59:31;;;;;;;9.00;7.70;;;14.10;1.00;;;;;;6295528;28;20708;-55
2022/11/12 14:02:37;;;;;;;9.00;7.67;;;14.10;1.00;;;;;;6303138;28;20240;-53
2022/11/12 14:05:48;;;;;;;7.77;6.63;;;14.00;1.00;;;;;;6285343;28;20483;-56
2022/11/12 14:09:17;;;;;;;8.57;6.83;;;13.90;1.00;;;;;;6292745;28;20793;-55
2022/11/12 14:12:41;;;;;;;8.70;7.80;;;13.80;1.00;;;;;;6292831;28;20232;-55
2022/11/12 14:16:11;;;;;;;7.87;7.07;;;13.70;1.00;;;;;;6287927;28;20622;-55
2022/11/12 14:19:59;;;;;;;7.90;6.43;;;13.60;1.00;;;;;;6294182;28;20248;-55
2022/11/12 14:23:09;;;;;;;9.07;7.13;;;13.50;1.00;;;;;;6274437;28;20248;-55
2022/11/12 14:26:34;;;;;;;8.13;7.30;;;13.30;1.00;;;;;;6297919;28;20628;-55
2022/11/12 14:29:37;;;;;;;8.17;7.40;;;13.20;1.00;;;;;;6289499;28;20705;-54
2022/11/12 14:32:50;;;;;;;6.37;5.87;;;13.00;1.00;;;;;;6285897;28;20252;-54
2022/11/12 14:35:54;;;;;;;7.33;6.60;;;12.90;1.00;;;;;;6296517;28;20232;-55
2022/11/12 14:38:59;;;;;;;6.97;6.43;;;12.80;1.00;;;;;;6294376;28;20233;-54
2022/11/12 14:42:04;;;;;;;6.67;5.90;;;12.70;1.00;;;;;;6299832;28;20233;-55
2022/11/12 14:45:15;;;;;;;11.13;6.67;;;12.60;1.00;;;;;;6299141;28;20225;-55
2022/11/12 14:48:19;;;;;;;10.07;7.30;;;12.50;1.00;;;;;;6290012;28;20232;-55
2022/11/12 14:51:27;;;;;;;9.43;7.60;;;12.40;1.00;;;;;;6283926;28;20248;-55
2022/11/12 14:54:34;;;;;;;8.10;7.33;;;12.30;1.00;;;;;;6282297;28;20729;-55
2022/11/12 14:57:40;;;;;;;8.93;7.50;;;12.20;1.00;;;;;;6285649;28;20395;-55
2022/11/12 15:00:51;;;;;;;7.43;6.83;;;12.10;1.00;;;;;;6292932;28;20703;-54
2022/11/12 15:04:05;;;;;;;7.20;6.60;;;12.00;1.00;;;;;;6301363;28;20240;-53
2022/11/12 15:07:24;;;;;;;8.10;7.20;;;11.90;1.00;;;;;;6290343;28;20817;-55
2022/11/12 15:10:35;;;;;;;7.57;6.97;;;11.80;1.00;;;;;;6304107;28;20397;-55
2022/11/12 15:13:41;;;;;;;7.17;6.50;;;11.70;1.00;;;;;;6289144;28;20240;-56
2022/11/12 15:16:44;;;;;;;7.33;6.60;;;11.60;1.00;;;;;;6287374;28;20613;-55
2022/11/12 15:19:47;;;;;;;7.47;6.73;;;11.50;1.00;;;;;;6294093;28;20240;-54
2022/11/12 15:22:51;;;;;;;7.77;7.00;;;11.50;1.00;;;;;;6283582;28;20244;-55
2022/11/12 15:26:01;;;;;;;7.93;7.13;;;11.40;1.00;;;;;;6281598;28;20795;-56
2022/11/12 15:29:15;;;;;;;7.97;7.10;;;11.30;1.00;;;;;;6296576;28;20229;-54
2022/11/12 15:32:36;;;;;;;10.23;7.90;;;11.20;1.00;;;;;;6305776;28;20237;-54
2022/11/12 15:35:42;;;;;;;13.30;8.70;;;11.20;1.00;;;;;;6302452;28;20791;-55
2022/11/12 15:38:50;;;;;;;11.47;8.70;;;11.10;1.00;;;;;;6293294;28;20251;-53
2022/11/12 15:42:00;;;;;;;8.47;7.77;;;11.00;1.00;;;;;;6296562;28;20239;-54
2022/11/12 15:45:10;;;;;;;11.43;8.93;;;11.00;1.00;;;;;;6302932;28;20513;-56
2022/11/12 15:48:13;;;;;;;11.40;8.67;;;10.90;1.00;;;;;;6287458;28;20236;-53
2022/11/12 15:51:17;;;;;;;9.77;8.77;;;10.90;1.00;;;;;;6299627;28;20605;-55
2022/11/12 15:54:21;;;;;;;8.87;7.83;;;10.80;1.00;;;;;;6297861;28;20248;-54
2022/11/12 15:57:28;;;;;;;8.73;7.50;;;10.70;1.00;;;;;;6288794;28;20244;-55
2022/11/12 16:00:34;;;;;;;8.97;8.17;;;10.70;1.00;;;;;;6295737;28;20244;-54
2022/11/12 16:03:38;;;;;;;9.37;8.47;;;10.60;1.00;;;;;;6295033;28;20507;-55
2022/11/12 16:06:41;;;;;;;10.07;9.07;;;10.50;1.00;;;;;;6299510;28;20843;-55
2022/11/12 16:09:44;;;;;;;10.80;8.60;;;10.50;1.00;;;;;;6296996;28;20366;-54
2022/11/12 16:12:47;;;;;;;11.70;9.40;;;10.40;1.00;;;;;;6306182;28;20240;-55
2022/11/12 16:15:52;;;;;;;11.90;10.70;;;10.30;1.00;;;;;;6294374;28;20750;-54
2022/11/12 16:18:55;;;;;;;11.13;9.97;;;10.30;1.00;;;;;;6292780;28;20253;-54
2022/11/12 16:21:58;;;;;;;10.57;9.57;;;10.20;1.00;;;;;;6295211;28;20618;-54
2022/11/12 16:25:01;;;;;;;11.40;10.10;;;10.10;1.00;;;;;;6289409;28;20236;-55
2022/11/12 16:28:10;;;;;;;10.93;9.87;;;10.10;1.00;;;;;;6302187;28;20286;-54
2022/11/12 16:31:15;;;;;;;12.97;11.67;;;10.10;1.00;;;;;;6285974;28;20234;-55
2022/11/12 16:34:18;;;;;;;13.97;11.47;;;10.00;1.00;;;;;;6297125;28;20233;-55
2022/11/12 16:37:21;;;;;;;13.50;11.87;;;9.90;1.00;;;;;;6299628;28;20630;-54
2022/11/12 16:40:25;;;;;;;13.63;11.83;;;9.90;1.00;;;;;;6301648;28;20244;-55
2022/11/12 16:43:34;;;;;;;12.20;11.10;;;9.80;1.00;;;;;;6289141;28;20243;-54
2022/11/12 16:46:39;;;;;;;13.40;11.77;;;9.80;1.00;;;;;;6293313;28;20394;-58
2022/11/12 16:49:42;;;;;;;14.30;12.53;;;9.70;1.00;;;;;;6291343;28;20259;-54
2022/11/12 16:52:50;;;;;;;14.10;12.60;;;9.70;1.00;;;;;;6287406;28;20327;-55
2022/11/12 16:55:53;;;;;;;17.00;12.23;;;9.60;1.00;;;;;;6296704;28;20232;-53
2022/11/12 16:58:56;;;;;;;12.80;11.57;;;9.60;1.00;;;;;;6292162;28;20355;-53